Rydal, Pennsylvania
Current Conditions -  °F | °C
As of 2:54 PM on Friday 24 Oct 2014 (Local Time) from KPNE Reporting Station
Clear Clear  
Wind Chill: 70°   Ceiling: Unl
Heat Index: 70°   Visibility: 10mi
Dew Point: 41°   Wind: 16mph
Humidity: 35%   Direction: 330°NNW
Pressure: 29.81"   Gusts: NA
Location:  40.1039°N, 75.1072°W
Report Text: KPNE 241854Z AUTO 33014KT 10SM CLR 21/05 A2981 RMK AO2 SLP094 T02110050 TSNO
Loading
Personal Weather Stations






























Interactive Weather Map
Tropical Storm Tracking
New forecast layout! Learn more

10-Day Weather Forecast

Advertisements
Track Severe Weather on mobile